Wilson Heron — 9HJW9 — position and weather

sailwx.info

Track history (hours):
 
Tides and Currents Weather Stations Pressure Air Temp Water Temp Dewpoint Dewpoint Depression Visibility Wind Speed Wind Dir Waves Ship Positions

Wilson Heron

Last reported at 2014-Aug-17 10:22 UTC. Time now 2014-Aug-21 08:22 UTC.
Position N 52°34' W 009°42'.

Length 91 m; draft 5.8 m.

Type: Cargo ship. MMSI: 249075000.

Date/timePositionNaut miles runAvg speedWind from/ knotsBaromVisibWave heightAir tempDewpointWater temp
2014-Aug-17 10:22N 52°34' W 009°42'910.6
2014-Aug-17 09:33N 52°30' W 009°54'2010.0
2014-Aug-17 07:33N 52°18' W 010°21'10 9.6
2014-Aug-17 06:33N 52°12' W 010°34'11 8.9
2014-Aug-17 05:18N 52°04' W 010°46'6 7.9
2014-Aug-17 04:33N 51°58' W 010°45'7 7.4
2014-Aug-17 03:33N 51°51' W 010°41'17 7.6
2014-Aug-17 01:18N 51°37' W 010°26'6 8.2
2014-Aug-17 00:33N 51°32' W 010°20'8 8.0
2014-Aug-16 23:33N 51°27' W 010°10'8 8.2
2014-Aug-16 22:33N 51°21' W 010°00'8 8.4
2014-Aug-16 21:33N 51°16' W 009°50'8 8.4
2014-Aug-16 20:33N 51°10' W 009°40'9 8.5
2014-Aug-16 19:33N 51°05' W 009°29'9 9.0
2014-Aug-16 18:33N 50°59' W 009°19'337 8.9
2014-Aug-15 04:31N 50°26' W 000°29'2311.0
2014-Aug-15 02:25N 50°32' E 000°06'8 9.3
2014-Aug-15 01:33N 50°34' E 000°18'8 8.4
2014-Aug-15 00:33N 50°36' E 000°31'8 7.9
2014-Aug-14 23:33N 50°40' E 000°42'9 8.9
2014-Aug-14 22:33N 50°46' E 000°52'1110.9
2014-Aug-14 21:32N 50°53' E 001°06'1212.2
2014-Aug-14 20:34N 51°00' E 001°21'1111.1
2014-Aug-14 19:33N 51°07' E 001°34'1010.4
2014-Aug-14 18:33N 51°15' E 001°47'9 9.3
2014-Aug-14 17:34N 51°23' E 001°54'8 8.2
2014-Aug-14 16:33N 51°29' E 002°02'9 8.1
2014-Aug-14 15:23N 51°37' E 002°11'95 9.6
2014-Aug-14 05:33N 52°30' E 004°19'8 7.8
2014-Aug-14 04:34N 52°28' E 004°31'3 3.0
2014-Aug-14 03:33N 52°28' E 004°36'7 6.9
2014-Aug-14 02:34N 52°25' E 004°46'1 1.1
2014-Aug-14 01:32N 52°24' E 004°47'0 0.0
2014-Aug-14 00:32N 52°24' E 004°47'0 0.0
2014-Aug-13 23:32N 52°24' E 004°47'0 0.0
2014-Aug-13 22:32N 52°24' E 004°47'0 0.0
2014-Aug-13 21:32N 52°24' E 004°47'0 0.0
2014-Aug-13 20:32N 52°24' E 004°47'0 0.0
2014-Aug-13 19:32N 52°24' E 004°47'0 0.0
2014-Aug-13 18:32N 52°24' E 004°47'0 0.0
2014-Aug-13 17:32N 52°24' E 004°47'0 0.0
2014-Aug-13 16:32N 52°24' E 004°47'0 0.0
2014-Aug-13 15:32N 52°24' E 004°47'0 0.0
2014-Aug-13 14:32N 52°24' E 004°47'0 0.0
2014-Aug-13 13:32N 52°24' E 004°47'0 0.0
2014-Aug-13 12:32N 52°24' E 004°47'0 0.0
2014-Aug-13 11:32N 52°24' E 004°47'0 0.0
2014-Aug-13 10:32N 52°24' E 004°47'0 0.0
2014-Aug-13 09:32N 52°24' E 004°47'0 0.1
2014-Aug-13 08:32N 52°24' E 004°47'0 0.0
2014-Aug-13 07:32N 52°24' E 004°47'0 0.0
2014-Aug-13 06:32N 52°24' E 004°47'0 0.0
2014-Aug-13 05:32N 52°24' E 004°47'0 0.0
2014-Aug-13 04:32N 52°24' E 004°47'0 0.0
2014-Aug-13 03:32N 52°24' E 004°47'0 0.0
2014-Aug-13 02:32N 52°24' E 004°47'0 0.0
2014-Aug-13 01:32N 52°24' E 004°47'0 0.0
2014-Aug-13 00:32N 52°24' E 004°47'0 0.0
2014-Aug-12 23:32N 52°24' E 004°47'0 0.0
2014-Aug-12 22:32N 52°24' E 004°47'2 1.9
2014-Aug-12 21:34N 52°26' E 004°45'6 6.1
2014-Aug-12 20:33N 52°28' E 004°36'7 7.3
2014-Aug-12 19:33N 52°28' E 004°24'4 4.4
2014-Aug-12 18:33N 52°29' E 004°17'8 7.8
2014-Aug-12 17:34N 52°28' E 004°04'1111.1
2014-Aug-12 16:33N 52°26' E 003°46'1211.8
2014-Aug-12 15:33N 52°15' E 003°38'5 4.6
2014-Aug-12 14:33N 52°11' E 003°35'0 0.0
2014-Aug-12 13:33N 52°11' E 003°35'0 0.0
2014-Aug-12 12:33N 52°11' E 003°35'5110.1
2014-Aug-12 07:28N 52°36' E 002°22'1111.7
2014-Aug-12 06:33N 52°42' E 002°07'1212.1
2014-Aug-12 05:33N 52°49' E 001°51'1110.8
2014-Aug-12 04:33N 52°55' E 001°36'1010.0
2014-Aug-12 03:33N 53°00' E 001°22'9 9.2
2014-Aug-12 02:33N 53°04' E 001°08'21 8.8
2014-Aug-12 00:07N 53°17' E 000°39'5 9.3
2014-Aug-11 23:33N 53°21' E 000°33'10 9.7
2014-Aug-11 22:34N 53°28' E 000°22'1110.6
2014-Aug-11 21:33N 53°33' E 000°07'1211.5
2014-Aug-11 20:33N 53°38' W 000°11'0 0.2
2014-Aug-11 19:32N 53°38' W 000°12'0 0.0
2014-Aug-11 18:20N 53°38' W 000°12'0 0.0
2014-Aug-11 17:32N 53°38' W 000°12'0 0.0
2014-Aug-11 16:32N 53°38' W 000°12'0 0.0
2014-Aug-11 15:32N 53°38' W 000°12'0 0.0
2014-Aug-11 14:32N 53°38' W 000°12'0 0.0
2014-Aug-11 12:26N 53°38' W 000°12'0 0.0
2014-Aug-11 11:11N 53°38' W 000°12'0 0.0
2014-Aug-11 10:26N 53°38' W 000°12'0 0.0
2014-Aug-11 09:14N 53°38' W 000°12'0 0.0
2014-Aug-11 08:29N 53°38' W 000°12'0 0.0
2014-Aug-11 07:29N 53°38' W 000°12'0 0.0
2014-Aug-11 06:29N 53°38' W 000°12'0 0.0
2014-Aug-11 05:26N 53°38' W 000°12'0 0.0
2014-Aug-11 04:32N 53°38' W 000°12'0 0.0
2014-Aug-11 03:32N 53°38' W 000°12'0 0.0
2014-Aug-11 02:20N 53°38' W 000°12'0 0.0
2014-Aug-11 01:32N 53°38' W 000°12'0 0.0
2014-Aug-11 00:23N 53°38' W 000°12'0 0.0
2014-Aug-10 23:20N 53°38' W 000°12'0 0.0
2014-Aug-10 22:20N 53°38' W 000°12'0 0.0
2014-Aug-10 21:23N 53°38' W 000°12'0 0.0
2014-Aug-10 20:23N 53°38' W 000°12'0 0.0
2014-Aug-10 19:26N 53°38' W 000°12'0 0.0
2014-Aug-10 18:29N 53°38' W 000°12'0 0.0
2014-Aug-10 17:23N 53°38' W 000°12'0 0.0
2014-Aug-10 16:29N 53°38' W 000°12'0 0.0
2014-Aug-10 15:32N 53°38' W 000°12'0 0.0
2014-Aug-10 14:32N 53°38' W 000°12'0 0.0
2014-Aug-10 13:26N 53°38' W 000°12'0 0.0
2014-Aug-10 12:32N 53°38' W 000°12'0 0.0
2014-Aug-10 11:29N 53°38' W 000°12'0 0.0
2014-Aug-10 10:32N 53°38' W 000°12'0 0.0
2014-Aug-10 09:23N 53°38' W 000°12'0 0.0
2014-Aug-10 08:20N 53°38' W 000°12'0 0.0
2014-Aug-10 07:26N 53°38' W 000°12'0 0.0
2014-Aug-10 06:26N 53°38' W 000°12'0 0.0
2014-Aug-10 05:20N 53°38' W 000°12'0 0.0
2014-Aug-10 04:26N 53°38' W 000°12'0 0.0
2014-Aug-10 03:29N 53°38' W 000°12'0 0.0
2014-Aug-10 02:14N 53°38' W 000°12'0 0.0
2014-Aug-10 01:26N 53°38' W 000°12'0 0.0
2014-Aug-10 00:29N 53°38' W 000°12'0 0.0
2014-Aug-09 23:29N 53°38' W 000°12'0 0.0
2014-Aug-09 22:29N 53°38' W 000°12'0 0.0
2014-Aug-09 21:29N 53°38' W 000°12'0 0.1
2014-Aug-09 20:33N 53°38' W 000°12'1 0.6
2014-Aug-09 19:33N 53°38' W 000°11'6 6.5
2014-Aug-09 18:33N 53°35' W 000°01'8 8.2
2014-Aug-09 17:33N 53°33' E 000°13'8 8.1
2014-Aug-09 16:34N 53°28' E 000°24'38 9.6
2014-Aug-09 12:33N 53°04' E 001°12'1211.7
2014-Aug-09 11:33N 52°58' E 001°29'1211.6
2014-Aug-09 10:34N 52°51' E 001°45'62 8.4
2014-Aug-09 03:10N 52°18' E 003°11'6 9.8
2014-Aug-09 02:33N 52°14' E 003°19'1110.8
2014-Aug-09 01:33N 52°08' E 003°33'1010.2
2014-Aug-09 00:33N 52°04' E 003°48'9 8.7
2014-Aug-08 23:33N 52°00' E 004°01'5 4.9
2014-Aug-08 22:31N 51°57' E 004°08'0 0.0
2014-Aug-08 21:31N 51°57' E 004°08'0 0.0
2014-Aug-08 20:31N 51°57' E 004°08'0 0.0
2014-Aug-08 19:31N 51°57' E 004°08'0 0.0
2014-Aug-08 18:31N 51°57' E 004°08'0 0.0
2014-Aug-08 17:31N 51°57' E 004°08'0 0.0
2014-Aug-08 16:31N 51°57' E 004°08'0 0.0
2014-Aug-08 15:34N 51°57' E 004°08'0 0.3
2014-Aug-08 14:33N 51°57' E 004°08'0 0.4
2014-Aug-08 13:33N 51°57' E 004°08'0 0.4
2014-Aug-08 12:30N 51°57' E 004°09'0 0.0
2014-Aug-08 11:33N 51°57' E 004°09'0 0.0
2014-Aug-08 10:33N 51°57' E 004°09'0 0.0
2014-Aug-08 09:30N 51°57' E 004°09'0 0.0
2014-Aug-08 08:33N 51°57' E 004°09'0 0.0
2014-Aug-08 07:33N 51°57' E 004°09'0 0.0
2014-Aug-08 06:33N 51°57' E 004°09'0 0.0
2014-Aug-08 05:30N 51°57' E 004°09'0 0.0
2014-Aug-08 04:33N 51°57' E 004°09'0 0.0
2014-Aug-08 03:33N 51°57' E 004°09'0 0.0
2014-Aug-08 02:27N 51°57' E 004°09'0 0.0
2014-Aug-08 01:33N 51°57' E 004°09'0 0.0
2014-Aug-08 00:30N 51°57' E 004°09'0 0.0
2014-Aug-07 23:30N 51°57' E 004°09'0 0.0
2014-Aug-07 22:33N 51°57' E 004°09'0 0.0
2014-Aug-07 21:33N 51°57' E 004°09'0 0.0
2014-Aug-07 20:30N 51°57' E 004°09'0 0.0
2014-Aug-07 19:30N 51°57' E 004°09'0 0.0
2014-Aug-07 18:33N 51°57' E 004°09'0 0.0
2014-Aug-07 17:33N 51°57' E 004°09'0 0.0
2014-Aug-07 16:30N 51°57' E 004°09'0 0.0
2014-Aug-07 15:33N 51°57' E 004°09'0 0.0
2014-Aug-07 14:30N 51°57' E 004°09'0 0.0
2014-Aug-07 13:33N 51°57' E 004°09'0 0.0
2014-Aug-07 12:33N 51°57' E 004°09'0 0.0
2014-Aug-07 11:33N 51°57' E 004°09'0 0.0
2014-Aug-07 10:30N 51°57' E 004°09'  
Track history (hours):
 
Tides and Currents Weather Stations Pressure Air Temp Water Temp Dewpoint Dewpoint Depression Visibility Wind Speed Wind Dir Waves Ship Positions

Wilson Heron

Last reported at 2014-Aug-17 10:22 UTC. Time now 2014-Aug-21 08:22 UTC.
Position N 52°34' W 009°42'.

Length 91 m; draft 5.8 m.

Type: Cargo ship. MMSI: 249075000.

Date/timePositionNaut miles runAvg speedWind from/ knotsBaromVisibWave heightAir tempDewpointWater temp
2014-Aug-17 10:22N 52°34' W 009°42'910.6
2014-Aug-17 09:33N 52°30' W 009°54'2010.0
2014-Aug-17 07:33N 52°18' W 010°21'10 9.6
2014-Aug-17 06:33N 52°12' W 010°34'11 8.9
2014-Aug-17 05:18N 52°04' W 010°46'6 7.9
2014-Aug-17 04:33N 51°58' W 010°45'7 7.4
2014-Aug-17 03:33N 51°51' W 010°41'17 7.6
2014-Aug-17 01:18N 51°37' W 010°26'6 8.2
2014-Aug-17 00:33N 51°32' W 010°20'8 8.0
2014-Aug-16 23:33N 51°27' W 010°10'8 8.2
2014-Aug-16 22:33N 51°21' W 010°00'8 8.4
2014-Aug-16 21:33N 51°16' W 009°50'8 8.4
2014-Aug-16 20:33N 51°10' W 009°40'9 8.5
2014-Aug-16 19:33N 51°05' W 009°29'9 9.0
2014-Aug-16 18:33N 50°59' W 009°19'337 8.9
2014-Aug-15 04:31N 50°26' W 000°29'2311.0
2014-Aug-15 02:25N 50°32' E 000°06'8 9.3
2014-Aug-15 01:33N 50°34' E 000°18'8 8.4
2014-Aug-15 00:33N 50°36' E 000°31'8 7.9
2014-Aug-14 23:33N 50°40' E 000°42'9 8.9
2014-Aug-14 22:33N 50°46' E 000°52'1110.9
2014-Aug-14 21:32N 50°53' E 001°06'1212.2
2014-Aug-14 20:34N 51°00' E 001°21'1111.1
2014-Aug-14 19:33N 51°07' E 001°34'1010.4
2014-Aug-14 18:33N 51°15' E 001°47'9 9.3
2014-Aug-14 17:34N 51°23' E 001°54'8 8.2
2014-Aug-14 16:33N 51°29' E 002°02'9 8.1
2014-Aug-14 15:23N 51°37' E 002°11'95 9.6
2014-Aug-14 05:33N 52°30' E 004°19'8 7.8
2014-Aug-14 04:34N 52°28' E 004°31'3 3.0
2014-Aug-14 03:33N 52°28' E 004°36'7 6.9
2014-Aug-14 02:34N 52°25' E 004°46'1 1.1
2014-Aug-14 01:32N 52°24' E 004°47'0 0.0
2014-Aug-14 00:32N 52°24' E 004°47'0 0.0
2014-Aug-13 23:32N 52°24' E 004°47'0 0.0
2014-Aug-13 22:32N 52°24' E 004°47'0 0.0
2014-Aug-13 21:32N 52°24' E 004°47'0 0.0
2014-Aug-13 20:32N 52°24' E 004°47'0 0.0
2014-Aug-13 19:32N 52°24' E 004°47'0 0.0
2014-Aug-13 18:32N 52°24' E 004°47'0 0.0
2014-Aug-13 17:32N 52°24' E 004°47'0 0.0
2014-Aug-13 16:32N 52°24' E 004°47'0 0.0
2014-Aug-13 15:32N 52°24' E 004°47'0 0.0
2014-Aug-13 14:32N 52°24' E 004°47'0 0.0
2014-Aug-13 13:32N 52°24' E 004°47'0 0.0
2014-Aug-13 12:32N 52°24' E 004°47'0 0.0
2014-Aug-13 11:32N 52°24' E 004°47'0 0.0
2014-Aug-13 10:32N 52°24' E 004°47'0 0.0
2014-Aug-13 09:32N 52°24' E 004°47'0 0.1
2014-Aug-13 08:32N 52°24' E 004°47'0 0.0
2014-Aug-13 07:32N 52°24' E 004°47'0 0.0
2014-Aug-13 06:32N 52°24' E 004°47'0 0.0
2014-Aug-13 05:32N 52°24' E 004°47'0 0.0
2014-Aug-13 04:32N 52°24' E 004°47'0 0.0
2014-Aug-13 03:32N 52°24' E 004°47'0 0.0
2014-Aug-13 02:32N 52°24' E 004°47'0 0.0
2014-Aug-13 01:32N 52°24' E 004°47'0 0.0
2014-Aug-13 00:32N 52°24' E 004°47'0 0.0
2014-Aug-12 23:32N 52°24' E 004°47'0 0.0
2014-Aug-12 22:32N 52°24' E 004°47'2 1.9
2014-Aug-12 21:34N 52°26' E 004°45'6 6.1
2014-Aug-12 20:33N 52°28' E 004°36'7 7.3
2014-Aug-12 19:33N 52°28' E 004°24'4 4.4
2014-Aug-12 18:33N 52°29' E 004°17'8 7.8
2014-Aug-12 17:34N 52°28' E 004°04'1111.1
2014-Aug-12 16:33N 52°26' E 003°46'1211.8
2014-Aug-12 15:33N 52°15' E 003°38'5 4.6
2014-Aug-12 14:33N 52°11' E 003°35'0 0.0
2014-Aug-12 13:33N 52°11' E 003°35'0 0.0
2014-Aug-12 12:33N 52°11' E 003°35'5110.1
2014-Aug-12 07:28N 52°36' E 002°22'1111.7
2014-Aug-12 06:33N 52°42' E 002°07'1212.1
2014-Aug-12 05:33N 52°49' E 001°51'1110.8
2014-Aug-12 04:33N 52°55' E 001°36'1010.0
2014-Aug-12 03:33N 53°00' E 001°22'9 9.2
2014-Aug-12 02:33N 53°04' E 001°08'21 8.8
2014-Aug-12 00:07N 53°17' E 000°39'5 9.3
2014-Aug-11 23:33N 53°21' E 000°33'10 9.7
2014-Aug-11 22:34N 53°28' E 000°22'1110.6
2014-Aug-11 21:33N 53°33' E 000°07'1211.5
2014-Aug-11 20:33N 53°38' W 000°11'0 0.2
2014-Aug-11 19:32N 53°38' W 000°12'0 0.0
2014-Aug-11 18:20N 53°38' W 000°12'0 0.0
2014-Aug-11 17:32N 53°38' W 000°12'0 0.0
2014-Aug-11 16:32N 53°38' W 000°12'0 0.0
2014-Aug-11 15:32N 53°38' W 000°12'0 0.0
2014-Aug-11 14:32N 53°38' W 000°12'0 0.0
2014-Aug-11 12:26N 53°38' W 000°12'0 0.0
2014-Aug-11 11:11N 53°38' W 000°12'0 0.0
2014-Aug-11 10:26N 53°38' W 000°12'0 0.0
2014-Aug-11 09:14N 53°38' W 000°12'0 0.0
2014-Aug-11 08:29N 53°38' W 000°12'0 0.0
2014-Aug-11 07:29N 53°38' W 000°12'0 0.0
2014-Aug-11 06:29N 53°38' W 000°12'0 0.0
2014-Aug-11 05:26N 53°38' W 000°12'0 0.0
2014-Aug-11 04:32N 53°38' W 000°12'0 0.0
2014-Aug-11 03:32N 53°38' W 000°12'0 0.0
2014-Aug-11 02:20N 53°38' W 000°12'0 0.0
2014-Aug-11 01:32N 53°38' W 000°12'0 0.0
2014-Aug-11 00:23N 53°38' W 000°12'0 0.0
2014-Aug-10 23:20N 53°38' W 000°12'0 0.0
2014-Aug-10 22:20N 53°38' W 000°12'0 0.0
2014-Aug-10 21:23N 53°38' W 000°12'0 0.0
2014-Aug-10 20:23N 53°38' W 000°12'0 0.0
2014-Aug-10 19:26N 53°38' W 000°12'0 0.0
2014-Aug-10 18:29N 53°38' W 000°12'0 0.0
2014-Aug-10 17:23N 53°38' W 000°12'0 0.0
2014-Aug-10 16:29N 53°38' W 000°12'0 0.0
2014-Aug-10 15:32N 53°38' W 000°12'0 0.0
2014-Aug-10 14:32N 53°38' W 000°12'0 0.0
2014-Aug-10 13:26N 53°38' W 000°12'0 0.0
2014-Aug-10 12:32N 53°38' W 000°12'0 0.0
2014-Aug-10 11:29N 53°38' W 000°12'0 0.0
2014-Aug-10 10:32N 53°38' W 000°12'0 0.0
2014-Aug-10 09:23N 53°38' W 000°12'0 0.0
2014-Aug-10 08:20N 53°38' W 000°12'0 0.0
2014-Aug-10 07:26N 53°38' W 000°12'0 0.0
2014-Aug-10 06:26N 53°38' W 000°12'0 0.0
2014-Aug-10 05:20N 53°38' W 000°12'0 0.0
2014-Aug-10 04:26N 53°38' W 000°12'0 0.0
2014-Aug-10 03:29N 53°38' W 000°12'0 0.0
2014-Aug-10 02:14N 53°38' W 000°12'0 0.0
2014-Aug-10 01:26N 53°38' W 000°12'0 0.0
2014-Aug-10 00:29N 53°38' W 000°12'0 0.0
2014-Aug-09 23:29N 53°38' W 000°12'0 0.0
2014-Aug-09 22:29N 53°38' W 000°12'0 0.0
2014-Aug-09 21:29N 53°38' W 000°12'0 0.1
2014-Aug-09 20:33N 53°38' W 000°12'1 0.6
2014-Aug-09 19:33N 53°38' W 000°11'6 6.5
2014-Aug-09 18:33N 53°35' W 000°01'8 8.2
2014-Aug-09 17:33N 53°33' E 000°13'8 8.1
2014-Aug-09 16:34N 53°28' E 000°24'38 9.6
2014-Aug-09 12:33N 53°04' E 001°12'1211.7
2014-Aug-09 11:33N 52°58' E 001°29'1211.6
2014-Aug-09 10:34N 52°51' E 001°45'62 8.4
2014-Aug-09 03:10N 52°18' E 003°11'6 9.8
2014-Aug-09 02:33N 52°14' E 003°19'1110.8
2014-Aug-09 01:33N 52°08' E 003°33'1010.2
2014-Aug-09 00:33N 52°04' E 003°48'9 8.7
2014-Aug-08 23:33N 52°00' E 004°01'5 4.9
2014-Aug-08 22:31N 51°57' E 004°08'0 0.0
2014-Aug-08 21:31N 51°57' E 004°08'0 0.0
2014-Aug-08 20:31N 51°57' E 004°08'0 0.0
2014-Aug-08 19:31N 51°57' E 004°08'0 0.0
2014-Aug-08 18:31N 51°57' E 004°08'0 0.0
2014-Aug-08 17:31N 51°57' E 004°08'0 0.0
2014-Aug-08 16:31N 51°57' E 004°08'0 0.0
2014-Aug-08 15:34N 51°57' E 004°08'0 0.3
2014-Aug-08 14:33N 51°57' E 004°08'0 0.4
2014-Aug-08 13:33N 51°57' E 004°08'0 0.4
2014-Aug-08 12:30N 51°57' E 004°09'0 0.0
2014-Aug-08 11:33N 51°57' E 004°09'0 0.0
2014-Aug-08 10:33N 51°57' E 004°09'0 0.0
2014-Aug-08 09:30N 51°57' E 004°09'0 0.0
2014-Aug-08 08:33N 51°57' E 004°09'0 0.0
2014-Aug-08 07:33N 51°57' E 004°09'0 0.0
2014-Aug-08 06:33N 51°57' E 004°09'0 0.0
2014-Aug-08 05:30N 51°57' E 004°09'0 0.0
2014-Aug-08 04:33N 51°57' E 004°09'0 0.0
2014-Aug-08 03:33N 51°57' E 004°09'0 0.0
2014-Aug-08 02:27N 51°57' E 004°09'0 0.0
2014-Aug-08 01:33N 51°57' E 004°09'0 0.0
2014-Aug-08 00:30N 51°57' E 004°09'0 0.0
2014-Aug-07 23:30N 51°57' E 004°09'0 0.0
2014-Aug-07 22:33N 51°57' E 004°09'0 0.0
2014-Aug-07 21:33N 51°57' E 004°09'0 0.0
2014-Aug-07 20:30N 51°57' E 004°09'0 0.0
2014-Aug-07 19:30N 51°57' E 004°09'0 0.0
2014-Aug-07 18:33N 51°57' E 004°09'0 0.0
2014-Aug-07 17:33N 51°57' E 004°09'0 0.0
2014-Aug-07 16:30N 51°57' E 004°09'0 0.0
2014-Aug-07 15:33N 51°57' E 004°09'0 0.0
2014-Aug-07 14:30N 51°57' E 004°09'0 0.0
2014-Aug-07 13:33N 51°57' E 004°09'0 0.0
2014-Aug-07 12:33N 51°57' E 004°09'0 0.0
2014-Aug-07 11:33N 51°57' E 004°09'0 0.0
2014-Aug-07 10:30N 51°57' E 004°09'  

Dump ship's entire track history